Time;durP1;ratioP1;P1;durP2;ratioP2;P2;SDS_P1;SDS_P2;PMS_P1;PMS_P2;Temp;Humidity;BMP_temperature;BMP_pressure;BME280_temperature;BME280_humidity;BME280_pressure;Samples;Min_cycle;Max_cycle;Signal;HPM_P1;HPM_P2
2022/03/06 00:01:51;;;;;;;;;;;1.20;99.90;;;;;;5070504;28;19931;-64
2022/03/06 00:04:17;;;;;;;;;;;1.30;99.90;;;;;;5070780;28;19924;-60
2022/03/06 00:06:42;;;;;;;;;;;1.30;99.90;;;;;;5071765;28;20393;-61
2022/03/06 00:09:08;;;;;;;;;;;1.30;99.90;;;;;;5071160;28;20346;-60
2022/03/06 00:11:33;;;;;;;;;;;1.30;99.90;;;;;;5053793;28;19932;-61
2022/03/06 00:13:59;;;;;;;;;;;1.30;99.90;;;;;;5070985;28;20023;-61
2022/03/06 00:16:25;;;;;;;;;;;1.30;99.90;;;;;;5069362;28;19924;-61
2022/03/06 00:18:50;;;;;;;;;;;1.40;99.90;;;;;;5070422;28;19925;-60
2022/03/06 00:21:16;;;;;;;;;;;1.40;99.90;;;;;;5070101;28;19929;-60
2022/03/06 00:23:41;;;;;;;;;;;1.40;99.90;;;;;;5071618;28;20012;-61
2022/03/06 00:26:07;;;;;;;;;;;1.40;99.90;;;;;;5070096;28;19925;-61
2022/03/06 00:28:33;;;;;;;;;;;1.40;99.90;;;;;;5071591;28;19924;-61
2022/03/06 00:30:59;;;;;;;;;;;1.80;99.90;;;;;;5071158;28;19966;-59
2022/03/06 00:33:27;;;;;;;;;;;1.50;99.90;;;;;;5070221;28;19947;-59
2022/03/06 00:35:53;;;;;;;;;;;1.40;99.90;;;;;;5070103;28;19931;-58
2022/03/06 00:38:19;;;;;;;;;;;1.40;99.90;;;;;;5069784;28;19924;-59
2022/03/06 00:40:45;;;;;;;;;;;1.40;99.90;;;;;;5070376;28;19954;-60
2022/03/06 00:43:11;;;;;;;;;;;1.60;99.90;;;;;;5070913;28;20023;-60
2022/03/06 00:45:37;;;;;;;;;;;1.40;99.90;;;;;;5104178;28;20011;-59
2022/03/06 00:48:02;;;;;;;;;;;1.40;99.90;;;;;;5070939;28;20007;-60
2022/03/06 00:50:28;;;;;;;;;;;1.50;99.90;;;;;;5071462;28;20381;-60
2022/03/06 00:52:56;;;;;;;;;;;1.40;99.90;;;;;;5053531;28;20020;-60
2022/03/06 00:55:22;;;;;;;;;;;1.40;99.90;;;;;;5070767;28;20378;-60
2022/03/06 00:57:47;;;;;;;;;;;1.50;99.90;;;;;;5104134;28;19933;-59
2022/03/06 01:00:13;;;;;;;;;;;1.50;99.90;;;;;;5054201;28;19932;-60
2022/03/06 01:02:39;;;;;;;;;;;1.50;99.90;;;;;;5073798;28;19967;-59
2022/03/06 01:05:04;;;;;;;;;;;1.50;99.90;;;;;;5073561;28;20329;-59
2022/03/06 01:07:30;;;;;;;;;;;1.50;99.90;;;;;;5075081;28;20374;-61
2022/03/06 01:09:56;;;;;;;;;;;1.50;99.90;;;;;;5075152;28;19928;-60
2022/03/06 01:12:21;;;;;;;;;;;1.50;99.90;;;;;;5074565;28;20217;-59
2022/03/06 01:14:47;;;;;;;;;;;1.70;99.90;;;;;;5057266;28;19925;-60
2022/03/06 01:17:13;;;;;;;;;;;1.60;99.90;;;;;;5074477;28;19924;-59
2022/03/06 01:19:38;;;;;;;;;;;1.50;99.90;;;;;;5073604;28;20416;-61
2022/03/06 01:22:04;;;;;;;;;;;1.50;99.90;;;;;;5074495;28;19932;-61
2022/03/06 01:24:29;;;;;;;;;;;1.50;99.90;;;;;;5074880;28;19986;-60
2022/03/06 01:26:55;;;;;;;;;;;1.50;99.90;;;;;;5074647;28;19986;-60
2022/03/06 01:29:22;;;;;;;;;;;1.50;99.90;;;;;;5074283;28;19924;-60
2022/03/06 01:31:48;;;;;;;;;;;1.50;99.90;;;;;;5074704;28;19928;-61
2022/03/06 01:34:14;;;;;;;;;;;1.50;99.90;;;;;;5074017;28;19993;-60
2022/03/06 01:36:39;;;;;;;;;;;1.50;99.90;;;;;;5073405;28;19971;-59
2022/03/06 01:39:06;;;;;;;;;;;1.50;99.90;;;;;;5072924;28;19936;-64
2022/03/06 01:41:35;;;;;;;;;;;1.50;99.90;;;;;;5073401;28;19929;-60
2022/03/06 01:44:01;;;;;;;;;;;1.50;99.90;;;;;;5073131;28;19924;-59
2022/03/06 01:46:26;;;;;;;;;;;1.40;99.90;;;;;;5072638;28;20027;-59
2022/03/06 01:48:52;;;;;;;;;;;1.40;99.90;;;;;;5073954;28;19976;-61
2022/03/06 01:51:17;;;;;;;;;;;1.40;99.90;;;;;;5073840;28;19925;-59
2022/03/06 01:53:43;;;;;;;;;;;1.40;99.90;;;;;;5074206;28;19924;-61
2022/03/06 01:56:09;;;;;;;;;;;1.30;99.90;;;;;;5073820;28;20246;-60
2022/03/06 01:58:35;;;;;;;;;;;1.30;99.90;;;;;;5074055;28;19967;-59
2022/03/06 02:01:00;;;;;;;;;;;1.40;99.90;;;;;;5073864;28;19931;-60
2022/03/06 02:03:26;;;;;;;;;;;1.40;99.90;;;;;;5072258;28;19924;-58
2022/03/06 02:05:51;;;;;;;;;;;1.40;99.90;;;;;;5073153;28;19932;-58
2022/03/06 02:08:17;;;;;;;;;;;1.50;99.90;;;;;;5073665;28;19979;-59
2022/03/06 02:10:43;;;;;;;;;;;1.30;99.90;;;;;;5072268;28;19924;-59
2022/03/06 02:13:08;;;;;;;;;;;1.40;99.90;;;;;;5072989;28;19932;-63
2022/03/06 02:15:34;;;;;;;;;;;1.40;99.90;;;;;;5072655;28;19952;-59
2022/03/06 02:18:00;;;;;;;;;;;1.40;99.90;;;;;;5073898;28;20401;-60
2022/03/06 02:20:26;;;;;;;;;;;1.40;99.90;;;;;;5072291;28;20011;-60
2022/03/06 02:22:52;;;;;;;;;;;1.60;99.90;;;;;;5072770;28;19946;-60
2022/03/06 02:25:18;;;;;;;;;;;1.70;99.90;;;;;;5073116;28;19925;-60
2022/03/06 02:27:44;;;;;;;;;;;1.40;99.90;;;;;;5073974;28;19970;-59
2022/03/06 02:30:11;;;;;;;;;;;1.40;99.90;;;;;;5072263;28;20027;-63
2022/03/06 02:32:37;;;;;;;;;;;1.40;99.90;;;;;;5073385;28;19928;-59
2022/03/06 02:35:03;;;;;;;;;;;1.40;99.90;;;;;;5072009;28;19950;-60
2022/03/06 02:37:28;;;;;;;;;;;1.40;99.90;;;;;;5072703;28;20011;-60
2022/03/06 02:39:54;;;;;;;;;;;1.50;99.90;;;;;;5072449;28;19925;-59
2022/03/06 02:42:24;;;;;;;;;;;1.40;99.90;;;;;;5105709;28;20358;-59
2022/03/06 02:44:50;;;;;;;;;;;1.40;99.90;;;;;;5071939;28;19925;-60
2022/03/06 02:47:15;;;;;;;;;;;1.40;99.90;;;;;;5072629;28;20077;-60
2022/03/06 02:49:41;;;;;;;;;;;1.40;99.90;;;;;;5072077;28;19924;-60
2022/03/06 02:52:08;;;;;;;;;;;1.40;99.90;;;;;;5072190;28;19924;-59
2022/03/06 02:54:33;;;;;;;;;;;1.40;99.90;;;;;;5070986;28;20053;-60
2022/03/06 02:56:59;;;;;;;;;;;1.40;99.90;;;;;;5072915;28;19932;-59
2022/03/06 02:59:25;;;;;;;;;;;1.40;99.90;;;;;;5055020;28;19924;-59
2022/03/06 03:01:50;;;;;;;;;;;1.90;99.90;;;;;;5071464;28;19924;-59
2022/03/06 03:04:16;;;;;;;;;;;1.70;99.90;;;;;;5071515;28;20022;-64
2022/03/06 03:06:42;;;;;;;;;;;1.40;99.90;;;;;;5071231;28;19925;-59
2022/03/06 03:09:08;;;;;;;;;;;1.40;99.90;;;;;;5071727;28;20298;-60
2022/03/06 03:11:34;;;;;;;;;;;1.40;99.90;;;;;;5072307;28;19924;-59
2022/03/06 03:14:00;;;;;;;;;;;1.40;99.90;;;;;;5072544;28;19925;-59
2022/03/06 03:16:26;;;;;;;;;;;1.40;99.90;;;;;;5072139;28;20109;-61
2022/03/06 03:18:51;;;;;;;;;;;1.30;99.90;;;;;;5072513;28;19969;-59
2022/03/06 03:21:17;;;;;;;;;;;1.40;99.90;;;;;;5071448;28;20042;-63
2022/03/06 03:23:42;;;;;;;;;;;1.30;99.90;;;;;;5104877;28;19925;-59
2022/03/06 03:26:08;;;;;;;;;;;1.40;99.90;;;;;;5072454;28;20428;-59
2022/03/06 03:28:33;;;;;;;;;;;1.30;99.90;;;;;;5071789;28;19924;-59
2022/03/06 03:30:59;;;;;;;;;;;1.40;99.90;;;;;;5072230;28;19955;-59
2022/03/06 03:33:25;;;;;;;;;;;1.30;99.90;;;;;;5071857;28;19924;-60
2022/03/06 03:35:50;;;;;;;;;;;1.30;99.90;;;;;;5071037;28;19924;-60
2022/03/06 03:38:16;;;;;;;;;;;1.30;99.90;;;;;;5072296;28;19934;-58
2022/03/06 03:40:41;;;;;;;;;;;1.30;99.90;;;;;;5071386;28;19931;-59
2022/03/06 03:43:07;;;;;;;;;;;1.20;99.90;;;;;;5072137;28;20008;-60
2022/03/06 03:45:33;;;;;;;;;;;1.20;99.90;;;;;;5071509;28;19975;-59
2022/03/06 03:47:58;;;;;;;;;;;1.20;99.90;;;;;;5072105;28;20032;-60
2022/03/06 03:50:24;;;;;;;;;;;1.10;99.90;;;;;;5071719;28;19970;-61
2022/03/06 03:52:49;;;;;;;;;;;1.10;99.90;;;;;;5071074;28;19925;-60
2022/03/06 03:55:15;;;;;;;;;;;1.00;99.90;;;;;;5071951;28;19924;-60
2022/03/06 03:57:40;;;;;;;;;;;1.00;99.90;;;;;;5070720;28;20002;-59
2022/03/06 04:00:07;;;;;;;;;;;1.00;99.90;;;;;;5054299;28;19928;-59
2022/03/06 04:02:33;;;;;;;;;;;1.00;99.90;;;;;;5069994;28;20007;-62
2022/03/06 04:04:58;;;;;;;;;;;1.00;99.90;;;;;;5071905;28;20451;-60
2022/03/06 04:07:24;;;;;;;;;;;0.90;99.90;;;;;;5071790;28;19925;-64
2022/03/06 04:09:49;;;;;;;;;;;0.90;99.90;;;;;;5071825;28;20374;-59
2022/03/06 04:12:15;;;;;;;;;;;0.90;99.90;;;;;;5071564;28;20365;-59
2022/03/06 04:14:40;;;;;;;;;;;0.80;99.90;;;;;;5071242;28;19924;-59
2022/03/06 04:17:06;;;;;;;;;;;0.90;99.90;;;;;;5070478;28;20332;-61
2022/03/06 04:19:32;;;;;;;;;;;0.80;99.90;;;;;;5071353;28;20370;-58
2022/03/06 04:21:57;;;;;;;;;;;0.70;99.90;;;;;;5071648;28;19978;-60
2022/03/06 04:24:23;;;;;;;;;;;0.70;99.90;;;;;;5071386;28;20045;-63
2022/03/06 04:26:49;;;;;;;;;;;0.60;99.90;;;;;;5071064;28;19931;-59
2022/03/06 04:29:14;;;;;;;;;;;0.70;99.90;;;;;;5053998;28;19931;-59
2022/03/06 04:31:40;;;;;;;;;;;0.60;99.90;;;;;;5070030;28;19925;-59
2022/03/06 04:34:05;;;;;;;;;;;0.50;99.90;;;;;;5071317;28;20224;-59
2022/03/06 04:36:31;;;;;;;;;;;0.50;99.90;;;;;;5073874;28;19965;-59
2022/03/06 04:38:57;;;;;;;;;;;0.50;99.90;;;;;;5074402;28;19924;-59
2022/03/06 04:41:22;;;;;;;;;;;0.50;99.90;;;;;;5074416;28;19982;-60
2022/03/06 04:43:48;;;;;;;;;;;0.40;99.90;;;;;;5073637;28;19924;-59
2022/03/06 04:46:14;;;;;;;;;;;0.40;99.90;;;;;;5074361;28;20366;-59
2022/03/06 04:48:39;;;;;;;;;;;0.50;99.90;;;;;;5073827;28;19924;-59
2022/03/06 04:51:05;;;;;;;;;;;0.40;99.90;;;;;;5074068;28;19925;-61
2022/03/06 04:53:31;;;;;;;;;;;0.40;99.90;;;;;;5073564;28;19951;-60
2022/03/06 04:55:56;;;;;;;;;;;0.30;99.90;;;;;;5075149;28;19998;-60
2022/03/06 04:58:22;;;;;;;;;;;0.30;99.90;;;;;;5075362;28;19925;-59
2022/03/06 05:00:48;;;;;;;;;;;0.80;99.90;;;;;;5073588;28;19982;-60
2022/03/06 05:03:13;;;;;;;;;;;1.10;99.90;;;;;;5074658;28;19976;-60
2022/03/06 05:05:39;;;;;;;;;;;0.30;99.90;;;;;;5074642;28;19924;-61
2022/03/06 05:08:04;;;;;;;;;;;0.30;99.90;;;;;;5073786;28;20393;-61
2022/03/06 05:10:30;;;;;;;;;;;0.20;99.90;;;;;;5074781;28;19928;-65
2022/03/06 05:12:56;;;;;;;;;;;0.20;99.90;;;;;;5073721;28;19935;-60
2022/03/06 05:15:21;;;;;;;;;;;0.50;99.90;;;;;;5074833;28;19948;-61
2022/03/06 05:17:47;;;;;;;;;;;0.10;99.90;;;;;;5074333;28;19924;-61
2022/03/06 05:20:13;;;;;;;;;;;0.10;99.90;;;;;;5073873;28;19931;-61
2022/03/06 05:22:39;;;;;;;;;;;0.10;99.90;;;;;;5072976;28;19968;-60
2022/03/06 05:25:05;;;;;;;;;;;0.00;99.90;;;;;;5073511;28;20033;-61
2022/03/06 05:27:31;;;;;;;;;;;0.00;99.90;;;;;;5056964;28;19936;-63
2022/03/06 05:29:56;;;;;;;;;;;0.00;99.90;;;;;;5074505;28;19924;-61
2022/03/06 05:32:22;;;;;;;;;;;-0.10;99.90;;;;;;5073525;28;20332;-59
2022/03/06 05:34:48;;;;;;;;;;;-0.10;99.90;;;;;;5073986;28;19930;-60
2022/03/06 05:37:14;;;;;;;;;;;-0.20;99.90;;;;;;5074388;28;19925;-59
2022/03/06 05:39:40;;;;;;;;;;;-0.20;99.90;;;;;;5073926;28;19978;-59
2022/03/06 05:42:05;;;;;;;;;;;-0.20;99.90;;;;;;5056802;28;20051;-60
2022/03/06 05:44:31;;;;;;;;;;;-0.30;99.90;;;;;;5072903;28;19924;-59
2022/03/06 05:46:57;;;;;;;;;;;-0.30;99.90;;;;;;5073640;28;19924;-59
2022/03/06 05:49:22;;;;;;;;;;;-0.30;99.90;;;;;;5056645;28;19981;-59
2022/03/06 05:51:48;;;;;;;;;;;-0.40;99.90;;;;;;5056162;28;19924;-58
2022/03/06 05:54:13;;;;;;;;;;;-0.30;99.90;;;;;;5073973;28;19932;-59
2022/03/06 05:56:39;;;;;;;;;;;-0.40;99.90;;;;;;5073696;28;20015;-60
2022/03/06 05:59:05;;;;;;;;;;;-0.40;99.90;;;;;;5073049;28;19931;-59
2022/03/06 06:01:31;;;;;;;;;;;-0.50;99.90;;;;;;5055746;28;19928;-59
2022/03/06 06:03:58;;;;;;;;;;;-0.50;99.90;;;;;;5073463;28;20258;-59
2022/03/06 06:06:24;;;;;;;;;;;-0.50;99.90;;;;;;5072798;28;19925;-59
2022/03/06 06:08:50;;;;;;;;;;;-0.50;99.90;;;;;;5073457;28;19970;-61
2022/03/06 06:11:15;;;;;;;;;;;-0.50;99.90;;;;;;5073773;28;19925;-60
2022/03/06 06:13:41;;;;;;;;;;;-0.50;99.90;;;;;;5073429;28;19928;-62
2022/03/06 06:16:06;;;;;;;;;;;-0.50;99.90;;;;;;5073539;28;20007;-61
2022/03/06 06:18:32;;;;;;;;;;;-0.50;99.90;;;;;;5056021;28;19947;-60
2022/03/06 06:20:58;;;;;;;;;;;-0.50;99.90;;;;;;5073092;28;19920;-59
2022/03/06 06:23:23;;;;;;;;;;;-0.40;99.90;;;;;;5073803;28;19925;-59
2022/03/06 06:25:49;;;;;;;;;;;-0.40;99.90;;;;;;5055101;28;19924;-59
2022/03/06 06:28:14;;;;;;;;;;;-0.40;99.90;;;;;;5073554;28;19924;-59
2022/03/06 06:30:40;;;;;;;;;;;-0.30;99.90;;;;;;5072897;28;19925;-64
2022/03/06 06:33:06;;;;;;;;;;;-0.30;99.90;;;;;;5073240;28;20027;-60
2022/03/06 06:35:32;;;;;;;;;;;-0.30;99.90;;;;;;5072318;28;19924;-60
2022/03/06 06:37:58;;;;;;;;;;;0.10;99.90;;;;;;5072928;28;19924;-59
2022/03/06 06:40:24;;;;;;;;;;;-0.20;99.90;;;;;;5055657;28;20013;-60
2022/03/06 06:42:49;;;;;;;;;;;-0.30;99.90;;;;;;5072758;28;19978;-61
2022/03/06 06:45:15;;;;;;;;;;;-0.20;99.90;;;;;;5073138;28;19931;-59
2022/03/06 06:47:40;;;;;;;;;;;-0.20;99.90;;;;;;5073054;28;19978;-65
2022/03/06 06:50:06;;;;;;;;;;;-0.20;99.90;;;;;;5055156;28;19935;-62
2022/03/06 06:52:32;;;;;;;;;;;-0.20;99.90;;;;;;5055339;28;20370;-60
2022/03/06 06:54:57;;;;;;;;;;;-0.20;99.90;;;;;;5071130;28;19924;-60
2022/03/06 06:57:23;;;;;;;;;;;-0.10;99.90;;;;;;5054645;28;19975;-59
2022/03/06 06:59:48;;;;;;;;;;;-0.10;99.90;;;;;;5072536;28;19925;-60
2022/03/06 07:02:14;;;;;;;;;;;0.00;99.90;;;;;;5071421;28;19930;-60
2022/03/06 07:04:39;;;;;;;;;;;0.00;99.90;;;;;;5072736;28;19976;-59
2022/03/06 07:07:05;;;;;;;;;;;0.10;99.90;;;;;;5071219;28;20107;-59
2022/03/06 07:09:31;;;;;;;;;;;0.10;99.90;;;;;;5054945;28;19928;-59
2022/03/06 07:11:56;;;;;;;;;;;0.20;99.90;;;;;;5071755;28;19932;-59
2022/03/06 07:14:22;;;;;;;;;;;0.70;99.90;;;;;;5071270;28;19925;-59
2022/03/06 07:16:47;;;;;;;;;;;0.50;99.90;;;;;;5071160;28;19924;-61
2022/03/06 07:19:13;;;;;;;;;;;0.90;99.90;;;;;;5071374;28;19924;-60
2022/03/06 07:21:39;;;;;;;;;;;1.60;99.90;;;;;;5071117;28;19924;-61
2022/03/06 07:24:05;;;;;;;;;;;2.70;99.90;;;;;;5071936;28;19924;-60
2022/03/06 07:26:31;;;;;;;;;;;3.30;99.90;;;;;;5071350;28;19935;-61
2022/03/06 07:28:56;;;;;;;;;;;3.30;99.90;;;;;;5071418;28;20031;-59
2022/03/06 07:31:22;;;;;;;;;;;3.50;99.90;;;;;;5071035;28;19925;-59
2022/03/06 07:33:48;;;;;;;;;;;4.00;99.90;;;;;;5071663;28;20049;-64
2022/03/06 07:36:13;;;;;;;;;;;4.80;99.90;;;;;;5071867;28;19971;-60
2022/03/06 07:38:39;;;;;;;;;;;5.60;99.90;;;;;;5072053;28;20400;-60
2022/03/06 07:41:04;;;;;;;;;;;6.20;99.90;;;;;;5071728;28;19969;-59
2022/03/06 07:43:30;;;;;;;;;;;6.70;99.90;;;;;;5071763;28;19928;-60
2022/03/06 07:45:56;;;;;;;;;;;7.30;99.90;;;;;;5070358;28;19928;-59
2022/03/06 07:48:22;;;;;;;;;;;8.10;99.90;;;;;;5054387;28;19924;-59
2022/03/06 07:50:48;;;;;;;;;;;8.70;99.90;;;;;;5071035;28;19925;-60
2022/03/06 07:53:13;;;;;;;;;;;9.00;99.90;;;;;;5071385;28;19924;-62
2022/03/06 07:55:39;;;;;;;;;;;9.70;99.90;;;;;;5071025;28;20318;-62
2022/03/06 07:58:05;;;;;;;;;;;10.20;99.70;;;;;;5070409;28;19943;-60
2022/03/06 08:00:30;;;;;;;;;;;10.50;99.90;;;;;;5070524;28;19928;-61
2022/03/06 08:02:56;;;;;;;;;;;10.80;95.30;;;;;;5071181;28;20425;-60
2022/03/06 08:05:25;;;;;;;;;;;11.00;94.60;;;;;;5070569;28;19924;-60
2022/03/06 08:07:51;;;;;;;;;;;11.40;99.40;;;;;;5071428;28;19925;-64
2022/03/06 08:10:16;;;;;;;;;;;11.60;95.40;;;;;;5053694;28;19924;-60
2022/03/06 08:12:42;;;;;;;;;;;11.70;85.00;;;;;;5071526;28;19978;-60
2022/03/06 08:15:08;;;;;;;;;;;11.60;93.70;;;;;;5071225;28;19925;-61
2022/03/06 08:17:34;;;;;;;;;;;11.70;94.80;;;;;;5071616;28;19978;-60
2022/03/06 08:20:00;;;;;;;;;;;11.60;93.80;;;;;;5070136;28;19924;-61
2022/03/06 08:22:25;;;;;;;;;;;11.40;93.30;;;;;;5053802;28;20014;-60
2022/03/06 08:24:51;;;;;;;;;;;11.30;86.80;;;;;;5069998;28;19925;-60
2022/03/06 08:27:17;;;;;;;;;;;11.00;86.50;;;;;;5052911;28;20469;-60
2022/03/06 08:29:43;;;;;;;;;;;10.90;90.20;;;;;;5071208;28;19929;-60
2022/03/06 08:32:08;;;;;;;;;;;10.90;92.00;;;;;;5069703;28;19936;-62
2022/03/06 08:34:34;;;;;;;;;;;11.10;87.90;;;;;;5071281;28;19994;-61
2022/03/06 08:36:59;;;;;;;;;;;11.30;80.40;;;;;;5071165;28;19924;-62
2022/03/06 08:39:25;;;;;;;;;;;12.00;85.00;;;;;;5071382;28;19932;-61
2022/03/06 08:41:51;;;;;;;;;;;12.20;74.50;;;;;;5070198;28;19931;-60
2022/03/06 08:44:16;;;;;;;;;;;12.30;84.30;;;;;;5069720;28;19920;-61
2022/03/06 08:46:42;;;;;;;;;;;12.10;77.80;;;;;;5071336;28;19925;-62
2022/03/06 08:49:08;;;;;;;;;;;12.30;72.80;;;;;;5069509;28;20019;-60
2022/03/06 08:51:35;;;;;;;;;;;12.80;76.00;;;;;;5070601;28;19974;-61
2022/03/06 08:54:01;;;;;;;;;;;13.10;72.00;;;;;;5070561;28;20382;-61
2022/03/06 08:56:26;;;;;;;;;;;13.30;72.90;;;;;;5071137;28;19978;-61
2022/03/06 08:58:52;;;;;;;;;;;13.70;72.50;;;;;;5071159;28;20015;-61
2022/03/06 09:01:17;;;;;;;;;;;13.70;76.60;;;;;;5069610;28;19936;-61
2022/03/06 09:03:43;;;;;;;;;;;13.60;72.60;;;;;;5070702;28;20358;-61
2022/03/06 09:06:09;;;;;;;;;;;13.90;71.60;;;;;;5053122;28;19970;-61
2022/03/06 09:08:34;;;;;;;;;;;13.90;68.60;;;;;;5071190;28;19975;-63
2022/03/06 09:11:00;;;;;;;;;;;13.80;69.40;;;;;;5053168;28;20011;-65
2022/03/06 09:13:26;;;;;;;;;;;13.70;69.20;;;;;;5036334;28;19929;-61
2022/03/06 09:15:51;;;;;;;;;;;13.70;70.10;;;;;;5070165;28;19951;-60
2022/03/06 09:18:17;;;;;;;;;;;12.60;65.30;;;;;;5070841;28;19924;-61
2022/03/06 09:20:43;;;;;;;;;;;11.40;68.60;;;;;;5071881;28;20488;-61
2022/03/06 09:23:09;;;;;;;;;;;10.40;70.20;;;;;;5074129;28;19924;-61
2022/03/06 09:25:35;;;;;;;;;;;9.50;71.10;;;;;;5073531;28;19932;-61
2022/03/06 09:28:01;;;;;;;;;;;8.90;73.90;;;;;;5073769;28;19924;-60
2022/03/06 09:30:27;;;;;;;;;;;8.40;76.30;;;;;;5074339;28;19936;-60
2022/03/06 09:32:52;;;;;;;;;;;8.10;77.60;;;;;;5073104;28;19924;-62
2022/03/06 09:35:18;;;;;;;;;;;7.70;79.30;;;;;;5056471;28;19924;-61
2022/03/06 09:37:43;;;;;;;;;;;7.50;80.20;;;;;;5074000;28;19924;-61
2022/03/06 09:40:09;;;;;;;;;;;7.30;82.20;;;;;;5073834;28;19924;-61
2022/03/06 09:42:35;;;;;;;;;;;7.10;84.30;;;;;;5074300;28;19928;-61
2022/03/06 09:45:05;;;;;;;;;;;7.00;86.30;;;;;;5074398;28;20015;-62
2022/03/06 09:47:31;;;;;;;;;;;6.90;86.60;;;;;;5074425;28;19982;-60
2022/03/06 09:49:57;;;;;;;;;;;6.80;87.10;;;;;;5073865;28;19932;-62
2022/03/06 09:52:22;;;;;;;;;;;6.70;88.30;;;;;;5073525;28;19990;-63
2022/03/06 09:54:48;;;;;;;;;;;6.60;90.50;;;;;;5073995;28;20324;-61
2022/03/06 09:57:18;;;;;;;;;;;6.80;90.60;;;;;;5073408;28;20019;-61
2022/03/06 09:59:43;;;;;;;;;;;6.80;90.30;;;;;;5073958;28;19983;-60
2022/03/06 10:02:10;;;;;;;;;;;6.70;90.30;;;;;;5072308;28;19928;-62
2022/03/06 10:04:35;;;;;;;;;;;6.50;90.90;;;;;;5072604;28;19936;-62
2022/03/06 10:07:01;;;;;;;;;;;6.40;91.60;;;;;;5072665;28;20024;-61
2022/03/06 10:09:27;;;;;;;;;;;6.40;92.00;;;;;;5072496;28;19978;-61
2022/03/06 10:11:54;;;;;;;;;;;6.40;92.00;;;;;;5072630;28;19944;-61
2022/03/06 10:14:38;;;;;;;;;;;6.30;92.30;;;;;;5072243;28;20331;-62
2022/03/06 10:17:23;;;;;;;;;;;6.20;92.80;;;;;;5072762;28;19925;-62
2022/03/06 10:19:55;;;;;;;;;;;6.30;93.90;;;;;;5055214;28;19943;-61
2022/03/06 10:22:21;;;;;;;;;;;6.30;94.50;;;;;;5071334;28;19929;-63
2022/03/06 10:24:49;;;;;;;;;;;6.40;94.10;;;;;;5072498;28;20282;-61
2022/03/06 10:27:15;;;;;;;;;;;6.50;94.30;;;;;;5073695;28;20222;-59
2022/03/06 10:29:41;;;;;;;;;;;6.50;93.70;;;;;;5073374;28;19924;-61
2022/03/06 10:32:07;;;;;;;;;;;6.50;93.70;;;;;;5072674;28;19928;-59
2022/03/06 10:34:33;;;;;;;;;;;6.50;94.60;;;;;;5071740;28;20382;-61
2022/03/06 10:37:01;;;;;;;;;;;6.60;94.90;;;;;;5073030;28;19924;-61
2022/03/06 10:39:29;;;;;;;;;;;6.60;95.00;;;;;;5072824;28;19924;-60
2022/03/06 10:41:55;;;;;;;;;;;6.60;95.60;;;;;;5072864;28;20081;-62
2022/03/06 10:44:22;;;;;;;;;;;6.70;95.30;;;;;;5072063;28;19925;-61
2022/03/06 10:46:58;;;;;;;;;;;6.70;95.60;;;;;;5072735;28;20018;-61
2022/03/06 10:49:25;;;;;;;;;;;6.70;95.50;;;;;;5071049;28;19974;-61
2022/03/06 10:51:51;;;;;;;;;;;6.70;96.50;;;;;;5072936;28;20357;-60
2022/03/06 10:54:17;;;;;;;;;;;6.70;96.50;;;;;;5071344;28;19931;-61
2022/03/06 10:56:43;;;;;;;;;;;6.80;96.20;;;;;;5071531;28;19960;-61
2022/03/06 10:59:11;;;;;;;;;;;6.70;96.70;;;;;;5070706;28;20530;-61
2022/03/06 11:01:38;;;;;;;;;;;6.70;96.80;;;;;;5071261;28;19978;-61
2022/03/06 11:04:04;;;;;;;;;;;6.60;96.90;;;;;;5072718;28;19938;-63
2022/03/06 11:06:35;;;;;;;;;;;6.60;97.00;;;;;;5072171;28;19943;-61
2022/03/06 11:09:01;;;;;;;;;;;6.60;97.40;;;;;;5071465;28;19947;-61
2022/03/06 11:11:28;;;;;;;;;;;6.50;98.20;;;;;;5072304;28;20458;-61
2022/03/06 11:13:54;;;;;;;;;;;6.60;98.00;;;;;;5071674;28;19924;-61
2022/03/06 11:16:20;;;;;;;;;;;6.60;98.70;;;;;;5072306;28;19977;-61
2022/03/06 11:18:45;;;;;;;;;;;6.60;98.80;;;;;;5071169;28;20454;-61
2022/03/06 11:21:12;;;;;;;;;;;6.80;98.80;;;;;;5072448;28;19931;-61
2022/03/06 11:23:48;;;;;;;;;;;6.90;98.60;;;;;;5072128;28;20407;-61
2022/03/06 11:26:17;;;;;;;;;;;7.00;98.60;;;;;;5072498;28;20012;-63
2022/03/06 11:28:49;;;;;;;;;;;6.80;98.20;;;;;;5071063;28;20342;-62
2022/03/06 11:31:14;;;;;;;;;;;6.90;99.20;;;;;;5071377;28;20290;-62
2022/03/06 11:33:41;;;;;;;;;;;7.00;99.10;;;;;;5070686;28;19924;-60
2022/03/06 11:36:21;;;;;;;;;;;7.10;99.90;;;;;;5072313;28;20062;-60
2022/03/06 11:38:48;;;;;;;;;;;7.30;99.90;;;;;;5070846;28;19924;-60
2022/03/06 11:41:14;;;;;;;;;;;7.50;99.40;;;;;;5070335;28;19948;-61
2022/03/06 11:43:58;;;;;;;;;;;7.40;99.10;;;;;;5070889;28;20354;-61
2022/03/06 11:46:25;;;;;;;;;;;7.30;99.90;;;;;;5070202;28;20400;-60
2022/03/06 11:48:51;;;;;;;;;;;7.30;99.90;;;;;;5070729;28;19959;-61
2022/03/06 11:51:20;;;;;;;;;;;7.30;99.90;;;;;;5070752;28;19986;-60
2022/03/06 11:53:50;;;;;;;;;;;7.40;99.90;;;;;;5070065;28;19924;-60
2022/03/06 11:56:31;;;;;;;;;;;7.30;99.90;;;;;;5070495;28;19951;-61
2022/03/06 11:58:57;;;;;;;;;;;7.30;99.90;;;;;;5071695;28;19924;-60
2022/03/06 12:01:26;;;;;;;;;;;7.40;99.90;;;;;;5071289;28;19972;-63
2022/03/06 12:04:00;;;;;;;;;;;7.30;99.90;;;;;;5070375;28;19974;-61
2022/03/06 12:06:26;;;;;;;;;;;7.20;99.90;;;;;;5070489;28;20011;-61
2022/03/06 12:08:53;;;;;;;;;;;7.10;99.90;;;;;;5053228;28;19924;-62
2022/03/06 12:11:19;;;;;;;;;;;7.00;99.90;;;;;;5070066;28;19924;-60
2022/03/06 12:13:48;;;;;;;;;;;7.00;99.90;;;;;;5103895;28;20006;-62
2022/03/06 12:16:16;;;;;;;;;;;7.00;99.90;;;;;;5071462;28;19982;-60
2022/03/06 12:19:00;;;;;;;;;;;6.90;99.90;;;;;;5070931;28;19986;-61
2022/03/06 12:21:25;;;;;;;;;;;7.00;99.90;;;;;;5071249;28;20396;-66
2022/03/06 12:24:10;;;;;;;;;;;7.00;99.90;;;;;;5070051;28;19979;-61
2022/03/06 12:26:45;;;;;;;;;;;7.00;99.90;;;;;;5069801;28;20397;-62
2022/03/06 12:29:30;;;;;;;;;;;7.00;99.90;;;;;;5071618;28;19924;-60
2022/03/06 12:31:55;;;;;;;;;;;7.00;99.90;;;;;;5070822;28;19925;-60
2022/03/06 12:34:40;;;;;;;;;;;7.10;99.90;;;;;;5069761;28;19936;-60
2022/03/06 12:37:06;;;;;;;;;;;7.10;99.90;;;;;;5071334;28;19986;-61
2022/03/06 12:39:34;;;;;;;;;;;7.30;99.90;;;;;;5069624;28;20008;-61
2022/03/06 12:41:59;;;;;;;;;;;7.30;99.90;;;;;;5069675;28;19931;-60
2022/03/06 12:44:27;;;;;;;;;;;7.30;99.90;;;;;;5071230;28;20416;-60
2022/03/06 12:46:52;;;;;;;;;;;7.40;99.90;;;;;;5036921;28;19931;-60
2022/03/06 12:49:23;;;;;;;;;;;7.40;99.90;;;;;;5071390;28;19924;-60
2022/03/06 12:51:50;;;;;;;;;;;7.40;99.90;;;;;;5070359;28;19920;-62
2022/03/06 12:54:20;;;;;;;;;;;7.30;99.90;;;;;;5069954;28;19935;-60
2022/03/06 12:56:46;;;;;;;;;;;7.30;99.90;;;;;;5073635;28;19928;-61
2022/03/06 12:59:16;;;;;;;;;;;7.30;99.90;;;;;;5073885;28;19932;-60
2022/03/06 13:01:43;;;;;;;;;;;7.30;99.90;;;;;;5074148;28;19936;-60
2022/03/06 13:04:09;;;;;;;;;;;7.30;99.90;;;;;;5073905;28;19924;-61
2022/03/06 13:06:35;;;;;;;;;;;7.30;99.90;;;;;;5074753;28;19924;-60
2022/03/06 13:09:01;;;;;;;;;;;7.20;99.90;;;;;;5073803;28;20101;-60
2022/03/06 13:11:27;;;;;;;;;;;7.30;99.90;;;;;;5073973;28;19989;-60
2022/03/06 13:14:03;;;;;;;;;;;7.20;99.90;;;;;;5073120;28;20003;-59
2022/03/06 13:16:29;;;;;;;;;;;7.30;99.90;;;;;;5074971;28;19924;-61
2022/03/06 13:18:59;;;;;;;;;;;7.30;99.90;;;;;;5074279;28;20301;-61
2022/03/06 13:21:25;;;;;;;;;;;7.20;99.90;;;;;;5075826;28;20019;-62
2022/03/06 13:23:54;;;;;;;;;;;7.20;99.90;;;;;;5073500;28;19924;-61
2022/03/06 13:26:20;;;;;;;;;;;7.20;99.90;;;;;;5073471;28;19925;-60
2022/03/06 13:28:46;;;;;;;;;;;7.20;99.90;;;;;;5073694;28;20388;-61
2022/03/06 13:31:11;;;;;;;;;;;7.10;99.90;;;;;;5074585;28;19924;-60
2022/03/06 13:33:38;;;;;;;;;;;7.10;99.90;;;;;;5072374;28;19932;-63
2022/03/06 13:36:15;;;;;;;;;;;7.10;99.90;;;;;;5072853;28;19924;-62
2022/03/06 13:38:41;;;;;;;;;;;7.10;99.90;;;;;;5072420;28;20531;-61
2022/03/06 13:41:09;;;;;;;;;;;7.00;99.90;;;;;;5072894;28;19972;-61
2022/03/06 13:43:38;;;;;;;;;;;7.00;99.90;;;;;;5073366;28;19928;-63
2022/03/06 13:46:08;;;;;;;;;;;7.00;99.90;;;;;;5056170;28;20362;-61
2022/03/06 13:48:36;;;;;;;;;;;7.00;99.90;;;;;;5073893;28;19924;-62
2022/03/06 13:51:04;;;;;;;;;;;7.00;99.90;;;;;;5073918;28;19924;-63
2022/03/06 13:53:30;;;;;;;;;;;7.10;99.90;;;;;;5074025;28;20027;-63
2022/03/06 13:55:58;;;;;;;;;;;7.10;99.90;;;;;;5073687;28;19960;-61
2022/03/06 13:58:24;;;;;;;;;;;7.00;99.90;;;;;;5073939;28;19925;-61
2022/03/06 14:00:54;;;;;;;;;;;7.00;99.90;;;;;;5072577;28;19948;-61
2022/03/06 14:03:27;;;;;;;;;;;7.00;99.90;;;;;;5073476;28;19980;-62
2022/03/06 14:05:53;;;;;;;;;;;7.00;99.90;;;;;;5072356;28;19924;-60
2022/03/06 14:08:20;;;;;;;;;;;6.90;99.90;;;;;;5055842;28;19931;-62
2022/03/06 14:10:47;;;;;;;;;;;6.90;99.90;;;;;;5072409;28;19952;-60
2022/03/06 14:13:19;;;;;;;;;;;6.90;99.90;;;;;;5073290;28;19931;-60
2022/03/06 14:15:44;;;;;;;;;;;7.00;99.90;;;;;;5072333;28;20278;-60
2022/03/06 14:18:10;;;;;;;;;;;7.00;99.90;;;;;;5072474;28;19932;-60
2022/03/06 14:20:45;;;;;;;;;;;7.00;99.90;;;;;;5073738;28;19929;-60
2022/03/06 14:23:11;;;;;;;;;;;7.00;99.90;;;;;;5072472;28;20286;-60
2022/03/06 14:25:36;;;;;;;;;;;6.90;99.90;;;;;;5056059;28;19954;-61